sensor_id;sensor_type;location;lat;lon;timestamp;P1;durP1;ratioP1;P2;durP2;ratioP2
49890;SDS011;35780;55.568;37.492;2023-02-01T00:01:20;23.38;;;11.15;;
49890;SDS011;35780;55.568;37.492;2023-02-01T00:03:45;22.38;;;11.02;;
49890;SDS011;35780;55.568;37.492;2023-02-01T00:06:11;21.25;;;11.00;;
49890;SDS011;35780;55.568;37.492;2023-02-01T00:08:36;20.17;;;11.35;;
49890;SDS011;35780;55.568;37.492;2023-02-01T00:11:09;15.40;;;7.78;;
49890;SDS011;35780;55.568;37.492;2023-02-01T00:13:36;20.20;;;10.38;;
49890;SDS011;35780;55.568;37.492;2023-02-01T00:16:07;27.60;;;14.43;;
49890;SDS011;35780;55.568;37.492;2023-02-01T00:18:32;24.38;;;10.48;;
49890;SDS011;35780;55.568;37.492;2023-02-01T00:20:59;25.95;;;12.27;;
49890;SDS011;35780;55.568;37.492;2023-02-01T00:23:27;27.60;;;12.35;;
49890;SDS011;35780;55.568;37.492;2023-02-01T00:25:53;20.58;;;9.35;;
49890;SDS011;35780;55.568;37.492;2023-02-01T00:28:18;21.05;;;10.52;;
49890;SDS011;35780;55.568;37.492;2023-02-01T00:30:44;27.17;;;13.20;;
49890;SDS011;35780;55.568;37.492;2023-02-01T00:33:10;19.88;;;12.57;;
49890;SDS011;35780;55.568;37.492;2023-02-01T00:35:35;18.27;;;9.10;;
49890;SDS011;35780;55.568;37.492;2023-02-01T00:38:01;18.92;;;9.38;;
49890;SDS011;35780;55.568;37.492;2023-02-01T00:40:27;23.67;;;11.93;;
49890;SDS011;35780;55.568;37.492;2023-02-01T00:42:53;21.25;;;11.95;;
49890;SDS011;35780;55.568;37.492;2023-02-01T00:45:19;25.33;;;13.43;;
49890;SDS011;35780;55.568;37.492;2023-02-01T00:47:45;25.05;;;11.30;;
49890;SDS011;35780;55.568;37.492;2023-02-01T00:50:10;23.33;;;12.45;;
49890;SDS011;35780;55.568;37.492;2023-02-01T00:52:36;18.60;;;9.20;;
49890;SDS011;35780;55.568;37.492;2023-02-01T00:55:02;24.50;;;13.25;;
49890;SDS011;35780;55.568;37.492;2023-02-01T00:57:28;27.23;;;13.07;;
49890;SDS011;35780;55.568;37.492;2023-02-01T00:59:54;25.10;;;12.93;;
49890;SDS011;35780;55.568;37.492;2023-02-01T01:02:19;24.40;;;14.15;;
49890;SDS011;35780;55.568;37.492;2023-02-01T01:04:45;24.98;;;10.88;;
49890;SDS011;35780;55.568;37.492;2023-02-01T01:07:10;27.38;;;13.40;;
49890;SDS011;35780;55.568;37.492;2023-02-01T01:09:36;23.02;;;12.68;;
49890;SDS011;35780;55.568;37.492;2023-02-01T01:12:01;20.90;;;9.60;;
49890;SDS011;35780;55.568;37.492;2023-02-01T01:14:31;26.98;;;13.68;;
49890;SDS011;35780;55.568;37.492;2023-02-01T01:16:57;22.77;;;12.50;;
49890;SDS011;35780;55.568;37.492;2023-02-01T01:19:22;23.63;;;11.00;;
49890;SDS011;35780;55.568;37.492;2023-02-01T01:21:48;24.58;;;11.23;;
49890;SDS011;35780;55.568;37.492;2023-02-01T01:24:14;23.33;;;10.70;;
49890;SDS011;35780;55.568;37.492;2023-02-01T01:26:39;23.80;;;12.05;;
49890;SDS011;35780;55.568;37.492;2023-02-01T01:29:05;22.23;;;10.93;;
49890;SDS011;35780;55.568;37.492;2023-02-01T01:31:31;25.48;;;14.27;;
49890;SDS011;35780;55.568;37.492;2023-02-01T01:33:58;29.60;;;14.23;;
49890;SDS011;35780;55.568;37.492;2023-02-01T01:36:25;20.75;;;12.15;;
49890;SDS011;35780;55.568;37.492;2023-02-01T01:38:51;32.13;;;14.82;;
49890;SDS011;35780;55.568;37.492;2023-02-01T01:41:20;22.83;;;11.85;;
49890;SDS011;35780;55.568;37.492;2023-02-01T01:43:55;25.95;;;12.82;;
49890;SDS011;35780;55.568;37.492;2023-02-01T01:46:29;24.65;;;11.75;;
49890;SDS011;35780;55.568;37.492;2023-02-01T01:49:07;20.75;;;9.82;;
49890;SDS011;35780;55.568;37.492;2023-02-01T01:51:40;25.50;;;11.88;;
49890;SDS011;35780;55.568;37.492;2023-02-01T01:54:21;25.92;;;10.60;;
49890;SDS011;35780;55.568;37.492;2023-02-01T01:57:01;22.13;;;9.98;;
49890;SDS011;35780;55.568;37.492;2023-02-01T01:59:29;22.25;;;10.90;;
49890;SDS011;35780;55.568;37.492;2023-02-01T02:01:56;23.95;;;12.52;;
49890;SDS011;35780;55.568;37.492;2023-02-01T02:04:22;27.15;;;13.80;;
49890;SDS011;35780;55.568;37.492;2023-02-01T02:09:25;21.17;;;10.30;;
49890;SDS011;35780;55.568;37.492;2023-02-01T02:11:51;24.58;;;11.93;;
49890;SDS011;35780;55.568;37.492;2023-02-01T02:14:17;23.98;;;10.75;;
49890;SDS011;35780;55.568;37.492;2023-02-01T02:17:07;25.65;;;12.40;;
49890;SDS011;35780;55.568;37.492;2023-02-01T02:26:00;27.83;;;15.13;;
49890;SDS011;35780;55.568;37.492;2023-02-01T02:31:15;25.90;;;11.85;;
49890;SDS011;35780;55.568;37.492;2023-02-01T02:34:12;27.35;;;15.18;;
49890;SDS011;35780;55.568;37.492;2023-02-01T02:37:15;29.42;;;13.95;;
49890;SDS011;35780;55.568;37.492;2023-02-01T02:45:34;24.92;;;13.27;;
49890;SDS011;35780;55.568;37.492;2023-02-01T02:56:44;36.38;;;16.30;;
49890;SDS011;35780;55.568;37.492;2023-02-01T02:59:28;31.45;;;13.18;;
49890;SDS011;35780;55.568;37.492;2023-02-01T03:02:13;31.42;;;16.02;;
49890;SDS011;35780;55.568;37.492;2023-02-01T03:04:58;28.05;;;13.60;;
49890;SDS011;35780;55.568;37.492;2023-02-01T03:10:24;30.58;;;14.77;;
49890;SDS011;35780;55.568;37.492;2023-02-01T03:13:04;32.88;;;16.33;;
49890;SDS011;35780;55.568;37.492;2023-02-01T03:15:36;31.23;;;16.48;;
49890;SDS011;35780;55.568;37.492;2023-02-01T03:23:36;27.33;;;14.40;;
49890;SDS011;35780;55.568;37.492;2023-02-01T03:26:06;33.05;;;15.55;;
49890;SDS011;35780;55.568;37.492;2023-02-01T03:28:33;31.00;;;15.35;;
49890;SDS011;35780;55.568;37.492;2023-02-01T03:30:59;34.53;;;18.50;;
49890;SDS011;35780;55.568;37.492;2023-02-01T03:33:26;32.40;;;14.82;;
49890;SDS011;35780;55.568;37.492;2023-02-01T03:39:07;33.72;;;16.35;;
49890;SDS011;35780;55.568;37.492;2023-02-01T03:41:43;35.10;;;17.15;;
49890;SDS011;35780;55.568;37.492;2023-02-01T03:44:14;26.65;;;14.45;;
49890;SDS011;35780;55.568;37.492;2023-02-01T03:46:49;35.70;;;17.83;;
49890;SDS011;35780;55.568;37.492;2023-02-01T03:49:25;33.40;;;17.10;;
49890;SDS011;35780;55.568;37.492;2023-02-01T03:51:53;24.88;;;11.98;;
49890;SDS011;35780;55.568;37.492;2023-02-01T03:54:19;31.15;;;14.75;;
49890;SDS011;35780;55.568;37.492;2023-02-01T03:56:48;26.33;;;11.88;;
49890;SDS011;35780;55.568;37.492;2023-02-01T03:59:14;23.42;;;12.13;;
49890;SDS011;35780;55.568;37.492;2023-02-01T04:01:40;22.23;;;11.63;;
49890;SDS011;35780;55.568;37.492;2023-02-01T04:04:06;34.88;;;17.00;;
49890;SDS011;35780;55.568;37.492;2023-02-01T04:06:31;24.83;;;11.98;;
49890;SDS011;35780;55.568;37.492;2023-02-01T04:08:57;36.15;;;18.60;;
49890;SDS011;35780;55.568;37.492;2023-02-01T04:11:23;33.28;;;15.85;;
49890;SDS011;35780;55.568;37.492;2023-02-01T04:13:49;30.33;;;14.68;;
49890;SDS011;35780;55.568;37.492;2023-02-01T04:16:14;32.30;;;15.00;;
49890;SDS011;35780;55.568;37.492;2023-02-01T04:18:40;32.92;;;15.02;;
49890;SDS011;35780;55.568;37.492;2023-02-01T04:21:05;37.45;;;17.52;;
49890;SDS011;35780;55.568;37.492;2023-02-01T04:23:31;34.45;;;16.58;;
49890;SDS011;35780;55.568;37.492;2023-02-01T04:26:00;31.77;;;16.50;;
49890;SDS011;35780;55.568;37.492;2023-02-01T04:28:27;31.67;;;17.42;;
49890;SDS011;35780;55.568;37.492;2023-02-01T04:30:53;36.72;;;16.88;;
49890;SDS011;35780;55.568;37.492;2023-02-01T04:33:18;34.13;;;14.43;;
49890;SDS011;35780;55.568;37.492;2023-02-01T04:35:44;38.58;;;18.60;;
49890;SDS011;35780;55.568;37.492;2023-02-01T04:38:09;45.75;;;20.88;;
49890;SDS011;35780;55.568;37.492;2023-02-01T04:40:35;70.45;;;29.08;;
49890;SDS011;35780;55.568;37.492;2023-02-01T04:43:02;58.13;;;25.02;;
49890;SDS011;35780;55.568;37.492;2023-02-01T04:45:28;53.83;;;23.30;;
49890;SDS011;35780;55.568;37.492;2023-02-01T04:47:54;53.22;;;24.15;;
49890;SDS011;35780;55.568;37.492;2023-02-01T04:50:19;61.58;;;23.55;;
49890;SDS011;35780;55.568;37.492;2023-02-01T04:52:45;49.53;;;23.35;;
49890;SDS011;35780;55.568;37.492;2023-02-01T04:55:11;43.08;;;19.98;;
49890;SDS011;35780;55.568;37.492;2023-02-01T04:57:38;36.42;;;15.85;;
49890;SDS011;35780;55.568;37.492;2023-02-01T05:00:06;44.28;;;20.58;;
49890;SDS011;35780;55.568;37.492;2023-02-01T05:02:33;40.33;;;19.83;;
49890;SDS011;35780;55.568;37.492;2023-02-01T05:04:58;47.38;;;23.00;;
49890;SDS011;35780;55.568;37.492;2023-02-01T05:07:24;44.50;;;21.55;;
49890;SDS011;35780;55.568;37.492;2023-02-01T05:09:49;44.67;;;21.88;;
49890;SDS011;35780;55.568;37.492;2023-02-01T05:12:15;48.85;;;22.02;;
49890;SDS011;35780;55.568;37.492;2023-02-01T05:15:13;35.70;;;17.40;;
49890;SDS011;35780;55.568;37.492;2023-02-01T05:17:39;44.42;;;20.35;;
49890;SDS011;35780;55.568;37.492;2023-02-01T05:20:06;41.20;;;16.10;;
49890;SDS011;35780;55.568;37.492;2023-02-01T05:22:32;47.55;;;20.25;;
49890;SDS011;35780;55.568;37.492;2023-02-01T05:24:57;48.75;;;22.38;;
49890;SDS011;35780;55.568;37.492;2023-02-01T05:27:23;42.70;;;21.05;;
49890;SDS011;35780;55.568;37.492;2023-02-01T05:29:48;41.83;;;20.05;;
49890;SDS011;35780;55.568;37.492;2023-02-01T05:32:14;40.90;;;18.33;;
49890;SDS011;35780;55.568;37.492;2023-02-01T05:34:39;45.50;;;19.63;;
49890;SDS011;35780;55.568;37.492;2023-02-01T05:37:05;36.60;;;15.15;;
49890;SDS011;35780;55.568;37.492;2023-02-01T05:39:31;45.78;;;22.77;;
49890;SDS011;35780;55.568;37.492;2023-02-01T05:41:56;43.42;;;19.33;;
49890;SDS011;35780;55.568;37.492;2023-02-01T05:44:21;38.13;;;16.80;;
49890;SDS011;35780;55.568;37.492;2023-02-01T05:46:47;46.22;;;19.42;;
49890;SDS011;35780;55.568;37.492;2023-02-01T05:49:12;45.08;;;18.48;;
49890;SDS011;35780;55.568;37.492;2023-02-01T05:51:38;50.28;;;20.35;;
49890;SDS011;35780;55.568;37.492;2023-02-01T05:54:03;38.67;;;17.35;;
49890;SDS011;35780;55.568;37.492;2023-02-01T05:56:29;50.40;;;21.02;;
49890;SDS011;35780;55.568;37.492;2023-02-01T05:58:54;43.88;;;18.70;;
49890;SDS011;35780;55.568;37.492;2023-02-01T06:01:20;47.40;;;21.55;;
49890;SDS011;35780;55.568;37.492;2023-02-01T06:03:46;43.30;;;19.40;;
49890;SDS011;35780;55.568;37.492;2023-02-01T06:06:11;48.65;;;22.25;;
49890;SDS011;35780;55.568;37.492;2023-02-01T06:08:37;50.55;;;21.20;;
49890;SDS011;35780;55.568;37.492;2023-02-01T06:11:05;44.42;;;21.27;;
49890;SDS011;35780;55.568;37.492;2023-02-01T06:13:31;44.97;;;19.63;;
49890;SDS011;35780;55.568;37.492;2023-02-01T06:15:57;50.58;;;20.65;;
49890;SDS011;35780;55.568;37.492;2023-02-01T06:18:23;51.85;;;23.42;;
49890;SDS011;35780;55.568;37.492;2023-02-01T06:20:53;44.40;;;20.50;;
49890;SDS011;35780;55.568;37.492;2023-02-01T06:23:19;30.50;;;11.85;;
49890;SDS011;35780;55.568;37.492;2023-02-01T06:25:50;46.53;;;20.65;;
49890;SDS011;35780;55.568;37.492;2023-02-01T06:28:16;50.78;;;22.92;;
49890;SDS011;35780;55.568;37.492;2023-02-01T06:30:42;45.33;;;20.50;;
49890;SDS011;35780;55.568;37.492;2023-02-01T06:33:14;47.50;;;20.50;;
49890;SDS011;35780;55.568;37.492;2023-02-01T06:35:43;46.67;;;20.48;;
49890;SDS011;35780;55.568;37.492;2023-02-01T06:38:12;43.90;;;22.50;;
49890;SDS011;35780;55.568;37.492;2023-02-01T06:40:38;46.70;;;19.58;;
49890;SDS011;35780;55.568;37.492;2023-02-01T06:43:05;43.58;;;20.88;;
49890;SDS011;35780;55.568;37.492;2023-02-01T06:45:30;42.70;;;18.33;;
49890;SDS011;35780;55.568;37.492;2023-02-01T06:47:56;47.05;;;21.63;;
49890;SDS011;35780;55.568;37.492;2023-02-01T06:50:23;36.88;;;18.42;;
49890;SDS011;35780;55.568;37.492;2023-02-01T06:52:49;38.70;;;17.00;;
49890;SDS011;35780;55.568;37.492;2023-02-01T06:55:14;42.40;;;23.02;;
49890;SDS011;35780;55.568;37.492;2023-02-01T06:57:40;44.47;;;20.13;;
49890;SDS011;35780;55.568;37.492;2023-02-01T07:00:06;43.13;;;22.52;;
49890;SDS011;35780;55.568;37.492;2023-02-01T07:02:32;47.92;;;20.70;;
49890;SDS011;35780;55.568;37.492;2023-02-01T07:04:57;54.13;;;24.17;;
49890;SDS011;35780;55.568;37.492;2023-02-01T07:07:23;49.92;;;23.15;;
49890;SDS011;35780;55.568;37.492;2023-02-01T07:09:48;49.08;;;22.15;;
49890;SDS011;35780;55.568;37.492;2023-02-01T07:12:14;47.78;;;22.85;;
49890;SDS011;35780;55.568;37.492;2023-02-01T07:14:40;48.38;;;21.77;;
49890;SDS011;35780;55.568;37.492;2023-02-01T07:17:06;50.50;;;25.17;;
49890;SDS011;35780;55.568;37.492;2023-02-01T07:19:31;43.00;;;17.98;;
49890;SDS011;35780;55.568;37.492;2023-02-01T07:21:57;41.25;;;17.15;;
49890;SDS011;35780;55.568;37.492;2023-02-01T07:24:22;49.60;;;22.35;;
49890;SDS011;35780;55.568;37.492;2023-02-01T07:26:48;34.33;;;16.23;;
49890;SDS011;35780;55.568;37.492;2023-02-01T07:29:16;33.97;;;17.30;;
49890;SDS011;35780;55.568;37.492;2023-02-01T07:31:42;45.40;;;21.92;;
49890;SDS011;35780;55.568;37.492;2023-02-01T07:34:08;49.47;;;23.52;;
49890;SDS011;35780;55.568;37.492;2023-02-01T07:36:33;48.47;;;22.20;;
49890;SDS011;35780;55.568;37.492;2023-02-01T07:39:01;40.33;;;19.25;;
49890;SDS011;35780;55.568;37.492;2023-02-01T07:41:27;45.58;;;19.30;;
49890;SDS011;35780;55.568;37.492;2023-02-01T07:43:53;44.85;;;19.08;;
49890;SDS011;35780;55.568;37.492;2023-02-01T07:46:19;44.35;;;22.05;;
49890;SDS011;35780;55.568;37.492;2023-02-01T07:48:45;42.10;;;19.75;;
49890;SDS011;35780;55.568;37.492;2023-02-01T07:51:12;36.75;;;16.63;;
49890;SDS011;35780;55.568;37.492;2023-02-01T07:53:39;43.88;;;22.85;;
49890;SDS011;35780;55.568;37.492;2023-02-01T07:56:09;38.80;;;18.10;;
49890;SDS011;35780;55.568;37.492;2023-02-01T07:58:37;45.17;;;19.83;;
49890;SDS011;35780;55.568;37.492;2023-02-01T08:01:02;35.83;;;17.25;;
49890;SDS011;35780;55.568;37.492;2023-02-01T08:03:47;40.67;;;17.05;;
49890;SDS011;35780;55.568;37.492;2023-02-01T08:06:13;31.50;;;16.45;;
49890;SDS011;35780;55.568;37.492;2023-02-01T08:08:39;42.08;;;20.42;;
49890;SDS011;35780;55.568;37.492;2023-02-01T08:11:06;31.40;;;15.25;;
49890;SDS011;35780;55.568;37.492;2023-02-01T08:13:32;39.95;;;16.58;;
49890;SDS011;35780;55.568;37.492;2023-02-01T08:15:59;43.17;;;20.55;;
49890;SDS011;35780;55.568;37.492;2023-02-01T08:18:26;40.00;;;21.10;;
49890;SDS011;35780;55.568;37.492;2023-02-01T08:20:51;38.22;;;15.95;;
49890;SDS011;35780;55.568;37.492;2023-02-01T08:23:17;31.35;;;15.52;;
49890;SDS011;35780;55.568;37.492;2023-02-01T08:25:43;32.85;;;17.67;;
49890;SDS011;35780;55.568;37.492;2023-02-01T08:28:09;35.72;;;19.35;;
49890;SDS011;35780;55.568;37.492;2023-02-01T08:30:38;40.40;;;17.80;;
49890;SDS011;35780;55.568;37.492;2023-02-01T08:33:04;40.75;;;17.27;;
49890;SDS011;35780;55.568;37.492;2023-02-01T08:35:34;28.60;;;12.55;;
49890;SDS011;35780;55.568;37.492;2023-02-01T08:38:00;30.83;;;16.25;;
49890;SDS011;35780;55.568;37.492;2023-02-01T08:40:26;37.20;;;18.45;;
49890;SDS011;35780;55.568;37.492;2023-02-01T08:42:51;29.30;;;14.38;;
49890;SDS011;35780;55.568;37.492;2023-02-01T08:45:17;37.80;;;20.70;;
49890;SDS011;35780;55.568;37.492;2023-02-01T08:47:48;42.33;;;19.92;;
49890;SDS011;35780;55.568;37.492;2023-02-01T08:50:15;43.92;;;19.42;;
49890;SDS011;35780;55.568;37.492;2023-02-01T08:52:41;37.45;;;19.80;;
49890;SDS011;35780;55.568;37.492;2023-02-01T08:55:07;39.75;;;19.58;;
49890;SDS011;35780;55.568;37.492;2023-02-01T08:57:33;36.47;;;17.65;;
49890;SDS011;35780;55.568;37.492;2023-02-01T08:59:59;40.85;;;21.30;;
49890;SDS011;35780;55.568;37.492;2023-02-01T09:02:25;31.00;;;13.32;;
49890;SDS011;35780;55.568;37.492;2023-02-01T09:04:51;32.00;;;16.00;;
49890;SDS011;35780;55.568;37.492;2023-02-01T09:07:17;36.10;;;20.45;;
49890;SDS011;35780;55.568;37.492;2023-02-01T09:09:43;35.08;;;16.88;;
49890;SDS011;35780;55.568;37.492;2023-02-01T09:12:09;31.42;;;15.60;;
49890;SDS011;35780;55.568;37.492;2023-02-01T09:14:35;41.15;;;19.90;;
49890;SDS011;35780;55.568;37.492;2023-02-01T09:17:00;33.03;;;17.88;;
49890;SDS011;35780;55.568;37.492;2023-02-01T09:19:26;40.55;;;22.50;;
49890;SDS011;35780;55.568;37.492;2023-02-01T09:21:51;40.35;;;19.48;;
49890;SDS011;35780;55.568;37.492;2023-02-01T09:24:17;39.97;;;21.13;;
49890;SDS011;35780;55.568;37.492;2023-02-01T09:26:42;35.92;;;20.73;;
49890;SDS011;35780;55.568;37.492;2023-02-01T09:29:08;40.22;;;21.38;;
49890;SDS011;35780;55.568;37.492;2023-02-01T09:31:37;40.25;;;20.20;;
49890;SDS011;35780;55.568;37.492;2023-02-01T09:34:03;32.72;;;16.13;;
49890;SDS011;35780;55.568;37.492;2023-02-01T09:36:29;37.40;;;20.02;;
49890;SDS011;35780;55.568;37.492;2023-02-01T09:38:54;46.60;;;24.10;;
49890;SDS011;35780;55.568;37.492;2023-02-01T09:41:30;46.38;;;25.30;;
49890;SDS011;35780;55.568;37.492;2023-02-01T09:46:53;49.75;;;25.02;;
49890;SDS011;35780;55.568;37.492;2023-02-01T09:49:26;47.05;;;25.40;;
49890;SDS011;35780;55.568;37.492;2023-02-01T09:52:07;55.47;;;27.60;;
49890;SDS011;35780;55.568;37.492;2023-02-01T09:54:42;54.30;;;27.42;;
49890;SDS011;35780;55.568;37.492;2023-02-01T09:57:19;47.42;;;23.88;;
49890;SDS011;35780;55.568;37.492;2023-02-01T09:59:51;56.28;;;27.83;;
49890;SDS011;35780;55.568;37.492;2023-02-01T10:02:21;74.40;;;37.05;;
49890;SDS011;35780;55.568;37.492;2023-02-01T10:04:49;58.13;;;28.55;;
49890;SDS011;35780;55.568;37.492;2023-02-01T10:10:11;64.18;;;32.97;;
49890;SDS011;35780;55.568;37.492;2023-02-01T10:21:07;87.07;;;42.05;;
49890;SDS011;35780;55.568;37.492;2023-02-01T10:27:17;60.15;;;31.13;;
49890;SDS011;35780;55.568;37.492;2023-02-01T10:29:52;50.85;;;25.80;;
49890;SDS011;35780;55.568;37.492;2023-02-01T10:32:20;63.88;;;32.58;;
49890;SDS011;35780;55.568;37.492;2023-02-01T10:34:50;60.38;;;31.20;;
49890;SDS011;35780;55.568;37.492;2023-02-01T10:39:53;51.80;;;26.85;;
49890;SDS011;35780;55.568;37.492;2023-02-01T10:42:21;51.15;;;28.42;;
49890;SDS011;35780;55.568;37.492;2023-02-01T10:44:48;54.58;;;25.58;;
49890;SDS011;35780;55.568;37.492;2023-02-01T10:47:15;50.25;;;26.88;;
49890;SDS011;35780;55.568;37.492;2023-02-01T10:52:42;44.33;;;23.38;;
49890;SDS011;35780;55.568;37.492;2023-02-01T10:58:16;51.85;;;26.55;;
49890;SDS011;35780;55.568;37.492;2023-02-01T11:00:49;46.90;;;25.90;;
49890;SDS011;35780;55.568;37.492;2023-02-01T11:03:30;51.35;;;26.35;;
49890;SDS011;35780;55.568;37.492;2023-02-01T11:05:58;49.60;;;24.75;;
49890;SDS011;35780;55.568;37.492;2023-02-01T11:08:23;45.45;;;25.40;;
49890;SDS011;35780;55.568;37.492;2023-02-01T11:10:56;48.92;;;25.63;;
49890;SDS011;35780;55.568;37.492;2023-02-01T11:13:27;48.95;;;24.40;;
49890;SDS011;35780;55.568;37.492;2023-02-01T11:15:55;27.52;;;15.05;;
49890;SDS011;35780;55.568;37.492;2023-02-01T11:18:27;41.85;;;23.73;;
49890;SDS011;35780;55.568;37.492;2023-02-01T11:20:53;44.72;;;24.27;;
49890;SDS011;35780;55.568;37.492;2023-02-01T11:23:24;45.38;;;20.63;;
49890;SDS011;35780;55.568;37.492;2023-02-01T11:26:00;40.20;;;21.75;;
49890;SDS011;35780;55.568;37.492;2023-02-01T11:28:33;36.50;;;19.40;;
49890;SDS011;35780;55.568;37.492;2023-02-01T11:31:01;39.45;;;22.98;;
49890;SDS011;35780;55.568;37.492;2023-02-01T11:33:32;42.65;;;21.50;;
49890;SDS011;35780;55.568;37.492;2023-02-01T11:36:01;37.50;;;20.08;;
49890;SDS011;35780;55.568;37.492;2023-02-01T11:38:45;43.58;;;23.02;;
49890;SDS011;35780;55.568;37.492;2023-02-01T11:43:56;29.80;;;17.23;;
49890;SDS011;35780;55.568;37.492;2023-02-01T11:46:24;28.63;;;16.85;;
49890;SDS011;35780;55.568;37.492;2023-02-01T11:48:54;33.83;;;17.13;;
49890;SDS011;35780;55.568;37.492;2023-02-01T11:51:24;29.95;;;15.82;;
49890;SDS011;35780;55.568;37.492;2023-02-01T11:56:37;30.80;;;17.67;;
49890;SDS011;35780;55.568;37.492;2023-02-01T11:59:19;30.45;;;17.50;;
49890;SDS011;35780;55.568;37.492;2023-02-01T12:10:01;27.52;;;15.15;;
49890;SDS011;35780;55.568;37.492;2023-02-01T12:34:44;20.48;;;11.43;;
49890;SDS011;35780;55.568;37.492;2023-02-01T12:42:40;26.55;;;15.15;;
49890;SDS011;35780;55.568;37.492;2023-02-01T12:45:19;29.30;;;15.88;;
49890;SDS011;35780;55.568;37.492;2023-02-01T12:47:55;26.23;;;13.85;;
49890;SDS011;35780;55.568;37.492;2023-02-01T12:50:33;25.48;;;14.00;;
49890;SDS011;35780;55.568;37.492;2023-02-01T12:55:34;32.42;;;14.95;;
49890;SDS011;35780;55.568;37.492;2023-02-01T13:00:40;31.77;;;15.70;;
49890;SDS011;35780;55.568;37.492;2023-02-01T13:03:34;35.10;;;15.10;;
49890;SDS011;35780;55.568;37.492;2023-02-01T13:06:08;27.20;;;15.85;;
49890;SDS011;35780;55.568;37.492;2023-02-01T13:11:09;20.80;;;10.45;;
49890;SDS011;35780;55.568;37.492;2023-02-01T13:16:43;29.05;;;14.73;;
49890;SDS011;35780;55.568;37.492;2023-02-01T13:21:40;27.67;;;13.65;;
49890;SDS011;35780;55.568;37.492;2023-02-01T13:24:19;23.13;;;13.57;;
49890;SDS011;35780;55.568;37.492;2023-02-01T13:26:49;24.52;;;13.50;;
49890;SDS011;35780;55.568;37.492;2023-02-01T13:29:19;21.25;;;12.10;;
49890;SDS011;35780;55.568;37.492;2023-02-01T13:31:56;23.48;;;12.07;;
49890;SDS011;35780;55.568;37.492;2023-02-01T13:37:18;26.20;;;13.50;;
49890;SDS011;35780;55.568;37.492;2023-02-01T13:40:16;26.13;;;13.93;;
49890;SDS011;35780;55.568;37.492;2023-02-01T13:42:50;24.65;;;12.85;;
49890;SDS011;35780;55.568;37.492;2023-02-01T13:45:29;23.55;;;11.55;;
49890;SDS011;35780;55.568;37.492;2023-02-01T13:48:02;26.20;;;13.05;;
49890;SDS011;35780;55.568;37.492;2023-02-01T13:50:30;25.15;;;11.40;;
49890;SDS011;35780;55.568;37.492;2023-02-01T13:53:23;24.85;;;14.52;;
49890;SDS011;35780;55.568;37.492;2023-02-01T13:55:55;28.98;;;14.32;;
49890;SDS011;35780;55.568;37.492;2023-02-01T13:58:22;33.03;;;13.20;;
49890;SDS011;35780;55.568;37.492;2023-02-01T14:04:44;28.75;;;13.52;;
49890;SDS011;35780;55.568;37.492;2023-02-01T14:16:38;45.78;;;20.65;;
49890;SDS011;35780;55.568;37.492;2023-02-01T14:19:07;29.65;;;13.60;;
49890;SDS011;35780;55.568;37.492;2023-02-01T14:21:34;25.33;;;13.50;;
49890;SDS011;35780;55.568;37.492;2023-02-01T14:37:08;22.42;;;12.32;;
49890;SDS011;35780;55.568;37.492;2023-02-01T14:39:40;25.27;;;13.43;;
49890;SDS011;35780;55.568;37.492;2023-02-01T14:44:52;23.48;;;12.95;;
49890;SDS011;35780;55.568;37.492;2023-02-01T14:52:28;19.38;;;10.50;;
49890;SDS011;35780;55.568;37.492;2023-02-01T14:54:57;25.75;;;12.98;;
49890;SDS011;35780;55.568;37.492;2023-02-01T14:57:28;25.65;;;13.60;;
49890;SDS011;35780;55.568;37.492;2023-02-01T14:59:59;24.88;;;12.05;;
49890;SDS011;35780;55.568;37.492;2023-02-01T15:02:31;23.58;;;11.30;;
49890;SDS011;35780;55.568;37.492;2023-02-01T15:04:58;16.77;;;8.45;;
49890;SDS011;35780;55.568;37.492;2023-02-01T15:07:24;24.30;;;12.95;;
49890;SDS011;35780;55.568;37.492;2023-02-01T15:09:51;23.23;;;12.55;;
49890;SDS011;35780;55.568;37.492;2023-02-01T15:12:22;29.85;;;14.05;;
49890;SDS011;35780;55.568;37.492;2023-02-01T15:15:15;26.38;;;13.05;;
49890;SDS011;35780;55.568;37.492;2023-02-01T15:18:03;23.52;;;12.73;;
49890;SDS011;35780;55.568;37.492;2023-02-01T15:20:29;21.67;;;12.40;;
49890;SDS011;35780;55.568;37.492;2023-02-01T15:22:57;21.08;;;12.32;;
49890;SDS011;35780;55.568;37.492;2023-02-01T15:25:29;24.17;;;12.63;;
49890;SDS011;35780;55.568;37.492;2023-02-01T15:27:56;26.65;;;13.07;;
49890;SDS011;35780;55.568;37.492;2023-02-01T15:30:23;29.92;;;12.90;;
49890;SDS011;35780;55.568;37.492;2023-02-01T15:32:51;23.98;;;10.77;;
49890;SDS011;35780;55.568;37.492;2023-02-01T15:35:47;23.63;;;12.52;;
49890;SDS011;35780;55.568;37.492;2023-02-01T15:46:34;27.90;;;11.32;;
49890;SDS011;35780;55.568;37.492;2023-02-01T15:49:01;24.02;;;13.63;;
49890;SDS011;35780;55.568;37.492;2023-02-01T15:51:28;25.45;;;13.38;;
49890;SDS011;35780;55.568;37.492;2023-02-01T15:53:59;28.13;;;10.35;;
49890;SDS011;35780;55.568;37.492;2023-02-01T15:56:33;28.77;;;13.95;;
49890;SDS011;35780;55.568;37.492;2023-02-01T15:59:02;25.05;;;12.40;;
49890;SDS011;35780;55.568;37.492;2023-02-01T16:01:28;28.50;;;14.95;;
49890;SDS011;35780;55.568;37.492;2023-02-01T16:04:02;27.20;;;13.25;;
49890;SDS011;35780;55.568;37.492;2023-02-01T16:06:32;25.25;;;12.63;;
49890;SDS011;35780;55.568;37.492;2023-02-01T16:11:45;22.77;;;12.25;;
49890;SDS011;35780;55.568;37.492;2023-02-01T16:14:13;25.17;;;12.38;;
49890;SDS011;35780;55.568;37.492;2023-02-01T16:16:41;17.17;;;8.50;;
49890;SDS011;35780;55.568;37.492;2023-02-01T16:19:07;22.58;;;12.27;;
49890;SDS011;35780;55.568;37.492;2023-02-01T16:21:33;24.02;;;13.48;;
49890;SDS011;35780;55.568;37.492;2023-02-01T16:23:58;22.90;;;11.60;;
49890;SDS011;35780;55.568;37.492;2023-02-01T16:26:28;25.60;;;13.43;;
49890;SDS011;35780;55.568;37.492;2023-02-01T16:28:55;28.00;;;11.25;;
49890;SDS011;35780;55.568;37.492;2023-02-01T16:31:21;25.15;;;12.13;;
49890;SDS011;35780;55.568;37.492;2023-02-01T16:33:51;22.00;;;12.35;;
49890;SDS011;35780;55.568;37.492;2023-02-01T16:36:17;20.95;;;12.05;;
49890;SDS011;35780;55.568;37.492;2023-02-01T16:38:43;23.65;;;10.85;;
49890;SDS011;35780;55.568;37.492;2023-02-01T16:41:12;22.90;;;13.02;;
49890;SDS011;35780;55.568;37.492;2023-02-01T16:43:38;14.60;;;8.02;;
49890;SDS011;35780;55.568;37.492;2023-02-01T16:46:04;22.88;;;10.70;;
49890;SDS011;35780;55.568;37.492;2023-02-01T16:48:33;25.52;;;13.68;;
49890;SDS011;35780;55.568;37.492;2023-02-01T16:51:04;23.17;;;12.85;;
49890;SDS011;35780;55.568;37.492;2023-02-01T16:53:37;24.13;;;13.52;;
49890;SDS011;35780;55.568;37.492;2023-02-01T16:56:12;24.60;;;12.68;;
49890;SDS011;35780;55.568;37.492;2023-02-01T16:58:40;22.98;;;11.85;;
49890;SDS011;35780;55.568;37.492;2023-02-01T17:01:08;16.83;;;8.60;;
49890;SDS011;35780;55.568;37.492;2023-02-01T17:03:35;19.77;;;10.75;;
49890;SDS011;35780;55.568;37.492;2023-02-01T17:06:01;21.88;;;10.35;;